Time;durP1;ratioP1;P1;durP2;ratioP2;P2;SDS_P1;SDS_P2;PMS_P1;PMS_P2;Temp;Humidity;BMP_temperature;BMP_pressure;BME280_temperature;BME280_humidity;BME280_pressure;Samples;Min_cycle;Max_cycle;Signal;HPM_P1;HPM_P2
2022/06/23 00:01:31;;;;;;;0.40;0.40;;;18.40;99.90;;;;;;5092416;28;20219;-69
2022/06/23 00:04:21;;;;;;;0.50;0.50;;;18.30;99.90;;;;;;5093193;28;20200;-69
2022/06/23 00:07:16;;;;;;;0.40;0.40;;;18.30;99.90;;;;;;5092917;28;20294;-67
2022/06/23 00:10:15;;;;;;;0.50;0.50;;;18.20;99.90;;;;;;5092354;28;20203;-69
2022/06/23 00:13:08;;;;;;;0.40;0.40;;;18.20;99.90;;;;;;5092201;28;20277;-68
2022/06/23 00:15:57;;;;;;;0.45;0.45;;;18.10;99.90;;;;;;5092839;28;20738;-69
2022/06/23 00:18:45;;;;;;;0.40;0.40;;;18.00;99.90;;;;;;5092116;28;20337;-68
2022/06/23 00:21:35;;;;;;;0.40;0.40;;;18.00;99.90;;;;;;5093322;28;20224;-69
2022/06/23 00:24:26;;;;;;;0.45;0.45;;;18.00;99.90;;;;;;5092352;28;20250;-68
2022/06/23 00:27:18;;;;;;;0.40;0.40;;;17.90;99.90;;;;;;5093010;28;20200;-70
2022/06/23 00:30:19;;;;;;;2.35;2.25;;;17.90;99.90;;;;;;5092235;28;20248;-69
2022/06/23 00:33:15;;;;;;;0.40;0.40;;;17.90;99.90;;;;;;5091889;28;20211;-69
2022/06/23 00:36:16;;;;;;;0.50;0.50;;;17.80;99.90;;;;;;5092375;28;20597;-69
2022/06/23 00:39:06;;;;;;;0.40;0.40;;;17.80;99.90;;;;;;5092776;28;20196;-66
2022/06/23 00:41:55;;;;;;;0.40;0.40;;;17.70;99.90;;;;;;5093075;28;20703;-69
2022/06/23 00:44:49;;;;;;;0.43;0.43;;;17.70;99.90;;;;;;5093215;28;20211;-68
2022/06/23 00:47:43;;;;;;;0.43;0.43;;;17.60;99.90;;;;;;5091986;28;20200;-68
2022/06/23 00:50:36;;;;;;;0.40;0.40;;;17.60;99.90;;;;;;5091799;28;20195;-68
2022/06/23 00:53:27;;;;;;;0.50;0.50;;;17.50;99.90;;;;;;5092339;28;20321;-69
2022/06/23 00:56:39;;;;;;;0.40;0.40;;;17.50;99.90;;;;;;5092593;28;20231;-68
2022/06/23 00:59:34;;;;;;;0.50;0.50;;;17.40;99.90;;;;;;5092255;28;20261;-67
2022/06/23 01:02:28;;;;;;;0.40;0.40;;;17.30;99.90;;;;;;5092235;28;20573;-70
2022/06/23 01:05:22;;;;;;;0.50;0.50;;;17.30;99.90;;;;;;5092303;28;20199;-68
2022/06/23 01:08:16;;;;;;;0.50;0.50;;;17.30;99.90;;;;;;5092344;28;20268;-69
2022/06/23 01:11:13;;;;;;;0.40;0.40;;;17.20;99.90;;;;;;5091910;28;20199;-69
2022/06/23 01:14:11;;;;;;;0.50;0.50;;;17.20;99.90;;;;;;5092296;28;20199;-67
2022/06/23 01:17:08;;;;;;;0.40;0.40;;;17.10;99.90;;;;;;5092417;28;20631;-68
2022/06/23 01:20:12;;;;;;;0.50;0.50;;;17.10;99.90;;;;;;5092276;28;20601;-68
2022/06/23 01:23:23;;;;;;;0.50;0.50;;;17.00;99.90;;;;;;5092731;28;20215;-68
2022/06/23 01:26:43;;;;;;;0.40;0.40;;;16.90;99.90;;;;;;5092213;28;20210;-68
2022/06/23 01:29:40;;;;;;;0.50;0.50;;;16.90;99.90;;;;;;5095557;28;20612;-69
2022/06/23 01:32:33;;;;;;;0.40;0.40;;;16.80;99.90;;;;;;5096774;28;20227;-68
2022/06/23 01:35:26;;;;;;;0.40;0.40;;;16.80;99.90;;;;;;5095977;28;20196;-70
2022/06/23 01:38:21;;;;;;;0.40;0.40;;;16.70;99.90;;;;;;5095378;28;20204;-67
2022/06/23 01:41:15;;;;;;;0.50;0.50;;;16.60;99.90;;;;;;5095700;28;20196;-68
2022/06/23 01:44:10;;;;;;;0.50;0.50;;;16.60;99.90;;;;;;5095954;28;20227;-70
2022/06/23 01:47:02;;;;;;;0.50;0.50;;;16.60;99.90;;;;;;5096201;28;20195;-68
2022/06/23 01:49:56;;;;;;;0.40;0.40;;;16.50;99.90;;;;;;5096229;28;20318;-69
2022/06/23 01:52:47;;;;;;;0.50;0.50;;;16.50;99.90;;;;;;5095046;28;20224;-68
2022/06/23 01:55:51;;;;;;;0.50;0.50;;;16.40;99.90;;;;;;5089441;28;20204;-70
2022/06/23 01:58:52;;;;;;;0.50;0.50;;;16.30;99.90;;;;;;5074271;28;20196;-70
2022/06/23 02:01:47;;;;;;;0.50;0.50;;;16.30;99.90;;;;;;5075194;28;20350;-68
2022/06/23 02:04:45;;;;;;;0.50;0.50;;;16.30;99.90;;;;;;5075342;28;20650;-68
2022/06/23 02:07:41;;;;;;;0.50;0.50;;;16.20;99.90;;;;;;5073759;28;20196;-68
2022/06/23 02:10:33;;;;;;;0.40;0.40;;;16.20;99.90;;;;;;5074134;28;20271;-68
2022/06/23 02:13:33;;;;;;;0.50;0.50;;;16.10;99.90;;;;;;5075151;28;20617;-68
2022/06/23 02:16:27;;;;;;;0.40;0.40;;;16.00;99.90;;;;;;5074292;28;20205;-69
2022/06/23 02:19:21;;;;;;;0.50;0.50;;;16.00;99.90;;;;;;5073966;28;20213;-70
2022/06/23 02:22:16;;;;;;;0.40;0.40;;;15.90;99.90;;;;;;5073643;28;20221;-69
2022/06/23 02:25:11;;;;;;;0.50;0.50;;;15.90;99.90;;;;;;5073476;28;20670;-68
2022/06/23 02:28:09;;;;;;;0.50;0.50;;;15.90;99.90;;;;;;5073776;28;20197;-70
2022/06/23 02:31:05;;;;;;;0.50;0.50;;;15.80;99.90;;;;;;5074167;28;20575;-69
2022/06/23 02:33:58;;;;;;;0.50;0.50;;;15.80;99.90;;;;;;5073200;28;20201;-68
2022/06/23 02:37:03;;;;;;;0.40;0.40;;;15.70;99.90;;;;;;5073345;28;20284;-69
2022/06/23 02:39:55;;;;;;;0.50;0.50;;;15.70;99.90;;;;;;5072792;28;20196;-71
2022/06/23 02:42:44;;;;;;;0.40;0.40;;;15.70;99.90;;;;;;5072319;28;20268;-69
2022/06/23 02:46:07;;;;;;;0.50;0.50;;;15.70;99.90;;;;;;5073387;28;20250;-69
2022/06/23 02:49:29;;;;;;;0.50;0.50;;;15.60;99.90;;;;;;5074634;28;20325;-67
2022/06/23 02:52:38;;;;;;;0.50;0.50;;;15.50;99.90;;;;;;5073906;28;20225;-69
2022/06/23 02:55:43;;;;;;;0.50;0.50;;;15.50;99.90;;;;;;5073674;28;20279;-70
2022/06/23 02:58:35;;;;;;;0.50;0.50;;;15.50;99.90;;;;;;5073615;28;20742;-69
2022/06/23 03:01:30;;;;;;;0.50;0.50;;;15.60;99.90;;;;;;5074206;28;20228;-69
2022/06/23 03:04:24;;;;;;;0.47;0.47;;;15.50;99.90;;;;;;5072559;28;20778;-68
2022/06/23 03:07:20;;;;;;;0.40;0.40;;;15.50;99.90;;;;;;5073123;28;20548;-69
2022/06/23 03:10:14;;;;;;;0.50;0.50;;;15.50;99.90;;;;;;5072508;28;20212;-69
2022/06/23 03:13:09;;;;;;;0.50;0.50;;;15.40;99.90;;;;;;5073573;28;20281;-69
2022/06/23 03:16:06;;;;;;;0.50;0.50;;;15.40;99.90;;;;;;5073665;28;20272;-69
2022/06/23 03:19:02;;;;;;;0.50;0.50;;;15.40;99.90;;;;;;5073071;28;20669;-69
2022/06/23 03:21:55;;;;;;;0.50;0.50;;;15.50;99.90;;;;;;5073301;28;20221;-68
2022/06/23 03:24:50;;;;;;;0.50;0.50;;;15.50;99.90;;;;;;5071767;28;20361;-67
2022/06/23 03:27:48;;;;;;;0.50;0.50;;;15.40;99.90;;;;;;5072843;28;20228;-68
2022/06/23 03:30:44;;;;;;;0.40;0.40;;;15.30;99.90;;;;;;5073483;28;20743;-68
2022/06/23 03:33:40;;;;;;;0.50;0.50;;;15.30;99.90;;;;;;5072067;28;20684;-68
2022/06/23 03:36:34;;;;;;;0.40;0.40;;;15.30;99.90;;;;;;5072846;28;20639;-68
2022/06/23 03:42:40;;;;;;;0.50;0.50;;;15.30;99.90;;;;;;5072504;28;20228;-69
2022/06/23 03:45:31;;;;;;;0.50;0.50;;;15.20;99.90;;;;;;5073722;28;20205;-69
2022/06/23 03:48:26;;;;;;;0.40;0.40;;;15.20;99.90;;;;;;5073711;28;20197;-69
2022/06/23 03:51:20;;;;;;;0.50;0.50;;;15.20;99.90;;;;;;5070792;28;20200;-67
2022/06/23 03:54:13;;;;;;;0.50;0.50;;;15.10;99.90;;;;;;5072189;28;20255;-69
2022/06/23 03:57:16;;;;;;;0.50;0.50;;;15.10;99.90;;;;;;5071488;28;20204;-68
2022/06/23 04:00:27;;;;;;;0.50;0.50;;;15.10;99.90;;;;;;5071074;28;20197;-69
2022/06/23 04:03:22;;;;;;;0.50;0.50;;;15.20;99.90;;;;;;5071713;28;20762;-69
2022/06/23 04:06:19;;;;;;;0.77;0.60;;;15.20;99.90;;;;;;5072743;28;20197;-68
2022/06/23 04:09:16;;;;;;;0.45;0.45;;;15.20;99.90;;;;;;5072343;28;20253;-68
2022/06/23 04:12:08;;;;;;;0.60;0.60;;;15.20;99.90;;;;;;5071702;28;20220;-70
2022/06/23 04:15:02;;;;;;;0.50;0.50;;;15.20;99.90;;;;;;5071971;28;20197;-68
2022/06/23 04:17:55;;;;;;;0.50;0.50;;;15.30;99.90;;;;;;5072608;28;20205;-69
2022/06/23 04:20:50;;;;;;;0.50;0.50;;;15.30;99.90;;;;;;5072042;28;20201;-73
2022/06/23 04:23:42;;;;;;;0.50;0.50;;;14.60;99.90;;;;;;5071761;28;20301;-69
2022/06/23 04:26:36;;;;;;;0.50;0.50;;;15.40;99.90;;;;;;5072107;28;20211;-69
2022/06/23 04:29:30;;;;;;;0.50;0.50;;;15.50;99.90;;;;;;5070913;28;20192;-68
2022/06/23 04:32:23;;;;;;;0.40;0.40;;;15.60;99.90;;;;;;5072404;28;20248;-67
2022/06/23 04:35:17;;;;;;;0.47;0.47;;;15.70;99.90;;;;;;5072357;28;20200;-69
2022/06/23 04:38:15;;;;;;;0.50;0.50;;;15.80;99.90;;;;;;5071937;28;20209;-68
2022/06/23 04:41:11;;;;;;;0.50;0.50;;;15.90;99.90;;;;;;5071060;28;20201;-69
2022/06/23 04:44:03;;;;;;;0.45;0.45;;;16.00;99.90;;;;;;5071446;28;20213;-70
2022/06/23 04:46:55;;;;;;;0.40;0.40;;;16.10;99.90;;;;;;5071546;28;20258;-69
2022/06/23 04:49:47;;;;;;;0.40;0.40;;;16.20;99.90;;;;;;5071482;28;20572;-68
2022/06/23 04:52:38;;;;;;;0.50;0.50;;;16.20;99.90;;;;;;5071068;28;20691;-67
2022/06/23 04:55:32;;;;;;;0.50;0.50;;;16.30;99.90;;;;;;5070914;28;20189;-68
2022/06/23 04:58:23;;;;;;;0.50;0.50;;;16.40;99.90;;;;;;5070598;28;20589;-69
2022/06/23 05:01:15;;;;;;;0.50;0.50;;;16.40;99.90;;;;;;5071095;28;20246;-68
2022/06/23 05:04:11;;;;;;;0.50;0.50;;;16.50;99.90;;;;;;5075176;28;20212;-68
2022/06/23 05:07:02;;;;;;;0.45;0.45;;;16.50;99.90;;;;;;5074913;28;20199;-66
2022/06/23 05:09:55;;;;;;;0.45;0.45;;;16.60;99.90;;;;;;5075738;28;20196;-68
2022/06/23 05:12:50;;;;;;;0.50;0.50;;;16.70;99.90;;;;;;5075524;28;20282;-69
2022/06/23 05:15:44;;;;;;;0.40;0.40;;;16.70;99.90;;;;;;5075020;28;20246;-68
2022/06/23 05:18:38;;;;;;;0.40;0.40;;;16.80;99.90;;;;;;5075666;28;20254;-69
2022/06/23 05:21:30;;;;;;;0.40;0.40;;;17.00;99.90;;;;;;5074319;28;20200;-69
2022/06/23 05:24:21;;;;;;;0.40;0.40;;;17.00;99.90;;;;;;5073850;28;20300;-68
2022/06/23 05:27:17;;;;;;;0.40;0.40;;;17.10;99.90;;;;;;5074158;28;20197;-71
2022/06/23 05:30:19;;;;;;;0.50;0.50;;;17.10;99.90;;;;;;5073037;28;20685;-69
2022/06/23 05:33:15;;;;;;;0.40;0.40;;;17.20;99.90;;;;;;5074177;28;20342;-71
2022/06/23 05:36:06;;;;;;;0.40;0.40;;;17.30;99.90;;;;;;5074175;28;20259;-70
2022/06/23 05:38:58;;;;;;;0.40;0.40;;;17.40;99.90;;;;;;5073551;28;20275;-71
2022/06/23 05:41:47;;;;;;;0.50;0.50;;;17.50;99.90;;;;;;5073717;28;20217;-69
2022/06/23 05:44:43;;;;;;;0.40;0.40;;;17.60;99.90;;;;;;5073095;28;20300;-69
2022/06/23 05:47:34;;;;;;;0.40;0.40;;;17.70;99.90;;;;;;5073539;28;20201;-69
2022/06/23 05:50:27;;;;;;;0.40;0.40;;;17.80;99.90;;;;;;5074540;28;20704;-70
2022/06/23 05:53:20;;;;;;;0.50;0.50;;;17.90;99.90;;;;;;5073399;28;20658;-70
2022/06/23 05:56:15;;;;;;;0.50;0.50;;;18.00;99.90;;;;;;5073569;28;20196;-69
2022/06/23 05:59:10;;;;;;;0.50;0.50;;;18.00;99.90;;;;;;5072826;28;20201;-71
2022/06/23 06:02:05;;;;;;;0.40;0.40;;;18.10;99.90;;;;;;5076383;28;20273;-72
2022/06/23 06:04:57;;;;;;;0.50;0.50;;;18.50;99.90;;;;;;5087492;28;20218;-67
2022/06/23 06:07:45;;;;;;;0.40;0.40;;;18.20;99.90;;;;;;5088164;28;20216;-70
2022/06/23 06:10:35;;;;;;;0.40;0.40;;;18.30;99.90;;;;;;5073208;28;20280;-68
2022/06/23 06:13:28;;;;;;;0.40;0.40;;;18.40;99.90;;;;;;5072448;28;20217;-69
2022/06/23 06:16:16;;;;;;;0.50;0.50;;;18.50;99.90;;;;;;5072816;28;20206;-69
2022/06/23 06:19:05;;;;;;;0.50;0.50;;;18.50;99.90;;;;;;5077263;28;20656;-69
2022/06/23 06:21:58;;;;;;;0.60;0.60;;;18.60;99.90;;;;;;5074142;28;20224;-69
2022/06/23 06:24:50;;;;;;;0.40;0.40;;;18.60;99.90;;;;;;5072827;28;20243;-70
2022/06/23 06:27:38;;;;;;;0.50;0.50;;;18.70;99.90;;;;;;5072329;28;20238;-70
2022/06/23 06:30:32;;;;;;;0.50;0.50;;;18.80;99.90;;;;;;5071690;28;20224;-70
2022/06/23 06:33:30;;;;;;;0.50;0.50;;;18.90;99.90;;;;;;5071960;28;20224;-68
2022/06/23 06:36:32;;;;;;;0.50;0.50;;;19.00;99.90;;;;;;5073258;28;20262;-70
2022/06/23 06:39:25;;;;;;;0.50;0.50;;;19.00;99.90;;;;;;5077290;28;20672;-71
2022/06/23 06:42:19;;;;;;;0.40;0.40;;;19.10;99.90;;;;;;5080749;28;20223;-69
2022/06/23 06:45:12;;;;;;;0.40;0.40;;;19.20;99.90;;;;;;5088262;28;20271;-70
2022/06/23 06:48:01;;;;;;;0.43;0.43;;;19.30;99.90;;;;;;5082548;28;20229;-68
2022/06/23 06:50:54;;;;;;;0.50;0.50;;;19.40;99.90;;;;;;5076667;28;20246;-69
2022/06/23 06:53:44;;;;;;;0.50;0.50;;;19.50;99.90;;;;;;5087260;28;20207;-69
2022/06/23 06:56:40;;;;;;;0.50;0.50;;;19.60;99.90;;;;;;5083864;28;20239;-68
2022/06/23 06:59:34;;;;;;;1.40;1.40;;;19.60;99.90;;;;;;5085457;28;20654;-70
2022/06/23 07:02:25;;;;;;;0.40;0.40;;;19.70;99.90;;;;;;5084678;28;20244;-68
2022/06/23 07:05:23;;;;;;;0.50;0.50;;;19.80;99.90;;;;;;5066331;28;20205;-71
2022/06/23 07:08:17;;;;;;;0.40;0.40;;;19.90;99.90;;;;;;5083208;28;20199;-68
2022/06/23 07:11:11;;;;;;;0.50;0.50;;;19.90;99.90;;;;;;5075008;28;20733;-69
2022/06/23 07:14:06;;;;;;;0.40;0.40;;;20.00;99.90;;;;;;5081851;28;20204;-68
2022/06/23 07:16:59;;;;;;;0.47;0.47;;;20.10;99.90;;;;;;5082912;28;20203;-68
2022/06/23 07:19:53;;;;;;;0.50;0.50;;;20.20;99.90;;;;;;5080712;28;20621;-68
2022/06/23 07:22:48;;;;;;;0.40;0.40;;;20.20;99.90;;;;;;5091592;28;20231;-69
2022/06/23 07:25:42;;;;;;;0.40;0.40;;;20.30;99.90;;;;;;5078277;28;20215;-69
2022/06/23 07:28:36;;;;;;;0.40;0.40;;;20.40;99.90;;;;;;5077509;28;20200;-69
2022/06/23 07:31:30;;;;;;;0.40;0.40;;;20.50;99.90;;;;;;5076609;28;20791;-69
2022/06/23 07:34:19;;;;;;;0.40;0.40;;;20.60;99.90;;;;;;5091283;28;20249;-69
2022/06/23 07:37:17;;;;;;;0.50;0.50;;;20.70;99.90;;;;;;5075321;28;20196;-69
2022/06/23 07:40:11;;;;;;;0.40;0.40;;;20.80;99.90;;;;;;5082397;28;20454;-68
2022/06/23 07:43:14;;;;;;;0.50;0.50;;;20.90;99.90;;;;;;5089443;28;20251;-70
2022/06/23 07:46:03;;;;;;;0.40;0.40;;;21.00;99.90;;;;;;5081277;28;20323;-70
2022/06/23 07:48:53;;;;;;;0.50;0.50;;;21.10;99.90;;;;;;5074822;28;20279;-69
2022/06/23 07:51:42;;;;;;;0.40;0.40;;;21.20;99.90;;;;;;5096141;28;20224;-69
2022/06/23 07:54:31;;;;;;;0.40;0.40;;;21.20;99.90;;;;;;5094271;28;20257;-67
2022/06/23 07:57:19;;;;;;;0.40;0.40;;;21.30;99.90;;;;;;5078940;28;20201;-67
2022/06/23 08:00:15;;;;;;;0.50;0.50;;;21.30;99.90;;;;;;5082475;28;20283;-69
2022/06/23 08:03:07;;;;;;;0.40;0.40;;;21.40;99.90;;;;;;5085669;28;20293;-68
2022/06/23 08:06:00;;;;;;;0.50;0.50;;;21.40;99.90;;;;;;5075449;28;20295;-69
2022/06/23 08:08:51;;;;;;;0.40;0.40;;;21.50;99.90;;;;;;5075022;28;20253;-67
2022/06/23 08:18:09;;;;;;;0.40;0.40;;;21.80;99.90;;;;;;5075009;28;20256;-68
2022/06/23 08:21:04;;;;;;;0.40;0.40;;;21.90;99.90;;;;;;5090929;28;20720;-68
2022/06/23 08:23:57;;;;;;;0.40;0.40;;;21.90;99.90;;;;;;5074073;28;20196;-69
2022/06/23 08:26:49;;;;;;;0.50;0.50;;;22.00;99.90;;;;;;5072810;28;20220;-68
2022/06/23 08:29:40;;;;;;;0.40;0.40;;;22.10;99.90;;;;;;5082661;28;20212;-68
2022/06/23 08:32:30;;;;;;;0.40;0.40;;;22.20;99.90;;;;;;5090941;28;20273;-68
2022/06/23 08:35:25;;;;;;;0.50;0.50;;;22.30;99.90;;;;;;5089742;28;20556;-68
2022/06/23 08:38:20;;;;;;;0.40;0.40;;;22.40;99.90;;;;;;5093846;28;20684;-68
2022/06/23 08:41:17;;;;;;;0.40;0.40;;;22.40;99.90;;;;;;5085089;28;20227;-67
2022/06/23 08:44:10;;;;;;;0.80;0.80;;;22.40;99.90;;;;;;5086606;28;20677;-68
2022/06/23 08:47:05;;;;;;;0.40;0.40;;;22.50;99.90;;;;;;5081947;28;20695;-69
2022/06/23 08:49:58;;;;;;;0.50;0.50;;;22.60;99.90;;;;;;5089186;28;20557;-69
2022/06/23 08:52:51;;;;;;;0.50;0.50;;;22.80;99.90;;;;;;5094830;28;20307;-67
2022/06/23 08:55:47;;;;;;;0.40;0.40;;;22.90;99.90;;;;;;5094131;28;20324;-68
2022/06/23 08:58:46;;;;;;;0.40;0.40;;;22.90;99.90;;;;;;5086095;28;20200;-68
2022/06/23 09:01:44;;;;;;;0.40;0.40;;;23.10;99.90;;;;;;5095209;28;20622;-68
2022/06/23 09:04:42;;;;;;;0.40;0.40;;;23.20;99.90;;;;;;5088136;28;20325;-68
2022/06/23 09:07:43;;;;;;;0.40;0.40;;;23.30;99.90;;;;;;5088073;28;20222;-67
2022/06/23 09:10:40;;;;;;;0.40;0.40;;;23.30;99.90;;;;;;5074511;28;20207;-68
2022/06/23 09:13:45;;;;;;;0.40;0.40;;;23.40;99.90;;;;;;5092517;28;20700;-67
2022/06/23 09:16:48;;;;;;;0.40;0.40;;;23.50;99.90;;;;;;5095519;28;20257;-68
2022/06/23 09:19:48;;;;;;;0.40;0.40;;;23.60;99.90;;;;;;5094794;28;20223;-69
2022/06/23 09:22:56;;;;;;;0.40;0.40;;;23.60;99.90;;;;;;5093852;28;20220;-69
2022/06/23 09:25:54;;;;;;;0.40;0.40;;;23.60;99.90;;;;;;5094635;28;20285;-67
2022/06/23 09:28:52;;;;;;;0.40;0.40;;;23.80;99.90;;;;;;5094327;28;20204;-67
2022/06/23 09:31:51;;;;;;;0.50;0.50;;;23.80;99.90;;;;;;5093262;28;20216;-69
2022/06/23 09:35:02;;;;;;;0.40;0.40;;;23.90;99.90;;;;;;5094211;28;20203;-69
2022/06/23 09:38:09;;;;;;;0.50;0.50;;;24.00;99.90;;;;;;5085654;28;20267;-69
2022/06/23 09:41:05;;;;;;;0.40;0.40;;;24.00;99.90;;;;;;5092588;28;20199;-68
2022/06/23 09:44:28;;;;;;;0.40;0.40;;;24.00;99.90;;;;;;5082836;28;20337;-69
2022/06/23 09:47:41;;;;;;;0.60;0.60;;;24.20;97.90;;;;;;5073254;28;20651;-70
2022/06/23 09:50:49;;;;;;;0.40;0.40;;;24.20;95.10;;;;;;5072059;28;20227;-68
2022/06/23 09:54:12;;;;;;;0.40;0.40;;;24.30;93.50;;;;;;5085958;28;20200;-69
2022/06/23 09:57:30;;;;;;;0.45;0.45;;;24.40;91.50;;;;;;5080711;28;20204;-68
2022/06/23 10:00:35;;;;;;;0.40;0.40;;;24.40;91.30;;;;;;5093990;28;20236;-69
2022/06/23 10:03:41;;;;;;;0.40;0.40;;;24.50;92.40;;;;;;5094544;28;20223;-69
2022/06/23 10:06:59;;;;;;;0.40;0.40;;;24.60;93.30;;;;;;5074174;28;20213;-67
2022/06/23 10:10:01;;;;;;;0.40;0.40;;;24.70;92.90;;;;;;5077772;28;20208;-69
2022/06/23 10:13:07;;;;;;;0.40;0.40;;;24.70;91.70;;;;;;5073468;28;20220;-69
2022/06/23 10:16:11;;;;;;;0.40;0.40;;;24.70;91.80;;;;;;5089452;28;20207;-69
2022/06/23 10:19:14;;;;;;;0.40;0.40;;;24.80;92.30;;;;;;5084978;28;20226;-69
2022/06/23 10:22:14;;;;;;;0.40;0.40;;;24.90;91.40;;;;;;5091998;28;20223;-69
2022/06/23 10:25:19;;;;;;;0.40;0.40;;;25.00;91.50;;;;;;5086471;28;20200;-69
2022/06/23 10:28:22;;;;;;;1.05;1.05;;;25.00;90.90;;;;;;5086601;28;20231;-67
2022/06/23 10:31:20;;;;;;;0.40;0.40;;;25.00;91.00;;;;;;5079742;28;20683;-70
2022/06/23 10:34:23;;;;;;;0.40;0.40;;;25.10;91.20;;;;;;5077927;28;20200;-69
2022/06/23 10:37:34;;;;;;;0.47;0.47;;;25.10;91.00;;;;;;5073702;28;20201;-69
2022/06/23 10:41:11;;;;;;;0.40;0.40;;;25.20;90.90;;;;;;5077181;28;20233;-69
2022/06/23 10:44:16;;;;;;;0.40;0.40;;;25.30;88.30;;;;;;5074095;28;20220;-67
2022/06/23 10:47:23;;;;;;;0.40;0.40;;;25.30;89.70;;;;;;5077320;28;20259;-69
2022/06/23 10:50:34;;;;;;;0.40;0.40;;;25.40;87.10;;;;;;5078031;28;20188;-69
2022/06/23 10:54:10;;;;;;;0.40;0.40;;;25.50;88.20;;;;;;5084499;28;20722;-69
2022/06/23 10:57:12;;;;;;;0.40;0.40;;;25.60;85.10;;;;;;5084536;28;20201;-69
2022/06/23 11:00:07;;;;;;;0.40;0.40;;;25.70;85.50;;;;;;5069731;28;20204;-68
2022/06/23 11:03:25;;;;;;;0.40;0.40;;;25.80;83.60;;;;;;5073530;28;20221;-68
2022/06/23 11:06:50;;;;;;;0.40;0.40;;;25.80;83.60;;;;;;5075892;28;20196;-69
2022/06/23 11:09:57;;;;;;;0.40;0.40;;;25.90;82.30;;;;;;5063551;28;20208;-67
2022/06/23 11:13:02;;;;;;;0.40;0.40;;;25.80;82.20;;;;;;5080180;28;20231;-69
2022/06/23 11:15:58;;;;;;;0.40;0.40;;;26.00;82.90;;;;;;5081946;28;20208;-69
2022/06/23 11:19:00;;;;;;;0.40;0.40;;;26.10;81.80;;;;;;5081781;28;20192;-69
2022/06/23 11:22:02;;;;;;;0.50;0.50;;;26.20;82.20;;;;;;5076493;28;20584;-69
2022/06/23 11:25:02;;;;;;;0.52;0.52;;;26.30;81.20;;;;;;5081976;28;20285;-69
2022/06/23 11:27:58;;;;;;;0.40;0.40;;;26.30;79.90;;;;;;5083742;28;20220;-68
2022/06/23 11:30:58;;;;;;;0.40;0.40;;;26.40;78.20;;;;;;5082767;28;20220;-68
2022/06/23 11:34:23;;;;;;;0.40;0.40;;;26.50;79.70;;;;;;5082926;28;20199;-68
2022/06/23 11:37:25;;;;;;;0.40;0.40;;;26.60;79.90;;;;;;5091502;28;20603;-68
2022/06/23 11:40:45;;;;;;;0.40;0.40;;;26.70;79.90;;;;;;5071458;28;20203;-68
2022/06/23 11:43:48;;;;;;;0.40;0.40;;;26.70;80.50;;;;;;5077416;28;20366;-68
2022/06/23 11:46:38;;;;;;;0.40;0.40;;;26.90;81.60;;;;;;5073308;28;20278;-66
2022/06/23 11:49:40;;;;;;;0.40;0.40;;;26.90;80.90;;;;;;5081248;28;20228;-66
2022/06/23 11:52:47;;;;;;;0.40;0.40;;;27.00;77.90;;;;;;5090630;28;20548;-65
2022/06/23 11:55:42;;;;;;;0.40;0.40;;;27.10;76.80;;;;;;5091439;28;20311;-65
2022/06/23 11:58:54;;;;;;;0.93;0.93;;;27.10;77.80;;;;;;5078605;28;20208;-65
2022/06/23 12:01:42;;;;;;;0.40;0.40;;;27.20;77.40;;;;;;5079388;28;20269;-66
2022/06/23 12:04:57;;;;;;;0.40;0.40;;;27.20;76.40;;;;;;5082102;28;20225;-66
2022/06/23 12:08:03;;;;;;;0.40;0.40;;;27.30;75.90;;;;;;5083289;28;20265;-65
2022/06/23 12:10:51;;;;;;;0.40;0.40;;;27.30;74.30;;;;;;5078158;28;20625;-67
2022/06/23 12:13:40;;;;;;;0.40;0.40;;;27.40;74.60;;;;;;5085196;28;20680;-67
2022/06/23 12:16:29;;;;;;;0.40;0.40;;;27.40;75.00;;;;;;5082162;28;20197;-68
2022/06/23 12:19:20;;;;;;;0.40;0.40;;;27.50;72.00;;;;;;5075722;28;20203;-67
2022/06/23 12:22:18;;;;;;;0.50;0.50;;;27.50;73.30;;;;;;5090593;28;20212;-68
2022/06/23 12:25:20;;;;;;;0.40;0.40;;;27.60;72.40;;;;;;5068155;28;20196;-67
2022/06/23 12:28:17;;;;;;;0.40;0.40;;;27.70;72.40;;;;;;5083888;28;20212;-67
2022/06/23 12:31:16;;;;;;;0.40;0.40;;;27.70;71.90;;;;;;5090298;28;20250;-67
2022/06/23 12:34:16;;;;;;;0.40;0.40;;;27.80;71.40;;;;;;5079314;28;20199;-68
2022/06/23 12:37:14;;;;;;;0.40;0.40;;;27.90;71.00;;;;;;5077232;28;20189;-65
2022/06/23 12:40:07;;;;;;;0.40;0.40;;;28.10;70.40;;;;;;5079059;28;20207;-65
2022/06/23 12:43:01;;;;;;;0.40;0.40;;;28.90;69.70;;;;;;5085954;28;20298;-66
2022/06/23 12:46:03;;;;;;;0.40;0.40;;;30.70;65.90;;;;;;5071070;28;20278;-65
2022/06/23 12:49:10;;;;;;;0.40;0.40;;;33.80;62.60;;;;;;5076388;28;20228;-66
2022/06/23 12:52:11;;;;;;;0.40;0.40;;;37.20;55.30;;;;;;5073157;28;20235;-67
2022/06/23 12:55:18;;;;;;;0.43;0.43;;;40.20;49.90;;;;;;5081377;28;20262;-67
2022/06/23 12:58:22;;;;;;;0.50;0.50;;;42.40;44.80;;;;;;5081132;28;20203;-67
2022/06/23 13:01:14;;;;;;;0.40;0.40;;;44.10;41.40;;;;;;5078057;28;20604;-67
2022/06/23 13:04:06;;;;;;;0.50;0.50;;;45.00;39.00;;;;;;5081143;28;20220;-68
2022/06/23 13:07:07;;;;;;;0.40;0.40;;;46.00;37.00;;;;;;5071159;28;20294;-66
2022/06/23 13:10:02;;;;;;;1.52;1.42;;;46.90;36.30;;;;;;5070530;28;20201;-67
2022/06/23 13:13:02;;;;;;;0.50;0.50;;;47.80;35.00;;;;;;5074786;28;20300;-67
2022/06/23 13:15:56;;;;;;;0.50;0.50;;;48.40;33.30;;;;;;5085591;28;20212;-67
2022/06/23 13:18:51;;;;;;;0.60;0.60;;;48.70;32.90;;;;;;5070671;28;20197;-68
2022/06/23 13:21:40;;;;;;;0.60;0.60;;;48.90;32.50;;;;;;5070988;28;20222;-67
2022/06/23 13:24:33;;;;;;;0.50;0.50;;;49.10;31.50;;;;;;5087152;28;20295;-67
2022/06/23 13:27:24;;;;;;;0.60;0.60;;;49.60;30.90;;;;;;5085487;28;20665;-67
2022/06/23 13:30:17;;;;;;;0.70;0.70;;;49.90;30.90;;;;;;5083830;28;20200;-67
2022/06/23 13:33:12;;;;;;;0.65;0.65;;;50.50;30.00;;;;;;5087925;28;20216;-68
2022/06/23 13:36:05;;;;;;;0.70;0.70;;;50.70;28.70;;;;;;5081874;28;20603;-68
2022/06/23 13:39:05;;;;;;;0.70;0.70;;;51.30;28.90;;;;;;5083963;28;20197;-68
2022/06/23 13:41:59;;;;;;;0.70;0.70;;;51.60;28.00;;;;;;5084530;28;20982;-70
2022/06/23 13:44:56;;;;;;;0.80;0.80;;;52.00;28.10;;;;;;5085180;28;20194;-69
2022/06/23 13:47:54;;;;;;;0.88;0.88;;;52.20;27.80;;;;;;5094041;28;20316;-69
2022/06/23 13:50:49;;;;;;;0.88;0.88;;;52.80;27.40;;;;;;5092368;28;20265;-69
2022/06/23 13:53:43;;;;;;;0.93;0.93;;;52.90;27.70;;;;;;5093304;28;20250;-69
2022/06/23 13:56:36;;;;;;;0.85;0.85;;;53.40;27.80;;;;;;5091672;28;20204;-69
2022/06/23 13:59:30;;;;;;;0.90;0.90;;;53.20;27.00;;;;;;5079245;28;20266;-68
2022/06/23 14:02:29;;;;;;;1.00;1.00;;;53.50;27.50;;;;;;5078520;28;20223;-68
2022/06/23 14:05:27;;;;;;;0.80;0.80;;;54.00;27.20;;;;;;5094606;28;20199;-68
2022/06/23 14:08:21;;;;;;;0.80;0.80;;;53.20;27.10;;;;;;5093430;28;20243;-69
2022/06/23 14:11:19;;;;;;;1.00;1.00;;;53.20;27.00;;;;;;5093554;28;20200;-70
2022/06/23 14:14:15;;;;;;;1.00;1.00;;;52.90;26.90;;;;;;5094146;28;20207;-69
2022/06/23 14:17:13;;;;;;;0.90;0.90;;;53.00;26.80;;;;;;5094663;28;20205;-69
2022/06/23 14:20:05;;;;;;;0.90;0.90;;;53.20;26.40;;;;;;5093108;28;20268;-69
2022/06/23 14:22:59;;;;;;;1.08;1.08;;;53.40;26.50;;;;;;5093913;28;20212;-69
2022/06/23 14:25:55;;;;;;;0.93;0.93;;;53.70;26.70;;;;;;5093354;28;20230;-69
2022/06/23 14:28:52;;;;;;;1.10;1.10;;;54.10;26.80;;;;;;5091753;28;20212;-69
2022/06/23 14:31:47;;;;;;;1.10;1.10;;;54.10;26.50;;;;;;5093546;28;20300;-70
2022/06/23 14:34:40;;;;;;;0.95;0.95;;;53.20;26.20;;;;;;5092490;28;20692;-69
2022/06/23 14:37:31;;;;;;;0.93;0.93;;;53.20;27.10;;;;;;5093147;28;20196;-69
2022/06/23 14:40:25;;;;;;;0.90;0.90;;;53.70;26.60;;;;;;5093928;28;20243;-69
2022/06/23 14:43:30;;;;;;;0.90;0.90;;;53.60;26.40;;;;;;5082756;28;20220;-69
2022/06/23 14:46:28;;;;;;;1.00;1.00;;;53.00;26.60;;;;;;5072636;28;20246;-69
2022/06/23 14:49:58;;;;;;;0.90;0.90;;;52.90;26.70;;;;;;5072657;28;20220;-69
2022/06/23 14:52:52;;;;;;;0.80;0.80;;;53.00;26.40;;;;;;5072308;28;20224;-69
2022/06/23 14:55:51;;;;;;;0.90;0.90;;;52.90;26.30;;;;;;5072276;28;20242;-69
2022/06/23 14:58:48;;;;;;;0.90;0.90;;;52.70;26.60;;;;;;5071746;28;20360;-69
2022/06/23 15:01:49;;;;;;;1.20;1.20;;;52.60;26.40;;;;;;5071143;28;20248;-67
2022/06/23 15:04:47;;;;;;;1.00;1.00;;;52.10;27.30;;;;;;5083889;28;20554;-70
2022/06/23 15:07:42;;;;;;;0.90;0.90;;;52.90;26.70;;;;;;5088034;28;20200;-68
2022/06/23 15:10:41;;;;;;;1.05;1.05;;;53.30;26.60;;;;;;5086841;28;20207;-68
2022/06/23 15:13:36;;;;;;;0.85;0.85;;;53.10;26.60;;;;;;5089968;28;20215;-69
2022/06/23 15:16:28;;;;;;;1.00;1.00;;;53.00;26.60;;;;;;5091036;28;20212;-69
2022/06/23 15:19:24;;;;;;;0.95;0.95;;;52.90;26.80;;;;;;5089936;28;20715;-68
2022/06/23 15:25:32;;;;;;;0.90;0.90;;;52.00;27.10;;;;;;5090905;28;20553;-69
2022/06/23 15:28:29;;;;;;;0.80;0.80;;;52.20;26.40;;;;;;5091609;28;20196;-69
2022/06/23 15:31:26;;;;;;;0.90;0.90;;;52.50;26.60;;;;;;5092168;28;20204;-69
2022/06/23 15:34:19;;;;;;;0.80;0.80;;;52.60;26.90;;;;;;5092731;28;20600;-70
2022/06/23 15:37:19;;;;;;;0.95;0.95;;;52.60;27.10;;;;;;5093220;28;20682;-70